Time;durP1;ratioP1;P1;durP2;ratioP2;P2;SDS_P1;SDS_P2;PMS_P1;PMS_P2;Temp;Humidity;BMP_temperature;BMP_pressure;BME280_temperature;BME280_humidity;BME280_pressure;Samples;Min_cycle;Max_cycle;Signal;HPM_P1;HPM_P2
2023/12/06 00:00:13;;;;;;;38.85;21.05;;;;;;;1.02;100.00;100959.72;5029774;28;20041;-70
2023/12/06 00:02:38;;;;;;;36.58;20.75;;;;;;;1.03;100.00;100967.47;5031357;28;20040;-69
2023/12/06 00:05:04;;;;;;;41.30;22.25;;;;;;;1.04;100.00;100968.28;5029934;28;20038;-69
2023/12/06 00:07:29;;;;;;;41.53;20.35;;;;;;;1.00;100.00;100959.88;5031178;28;20038;-70
2023/12/06 00:09:55;;;;;;;35.90;21.08;;;;;;;1.06;100.00;100969.00;5031262;28;20029;-70
2023/12/06 00:12:20;;;;;;;35.40;19.05;;;;;;;1.06;100.00;100975.09;5029794;28;20500;-70
2023/12/06 00:14:45;;;;;;;36.42;20.85;;;;;;;1.08;100.00;100975.78;5029770;28;20029;-70
2023/12/06 00:17:11;;;;;;;35.40;18.92;;;;;;;1.07;100.00;100974.13;5031061;28;20038;-70
2023/12/06 00:19:36;;;;;;;35.42;19.70;;;;;;;1.08;100.00;100970.53;5029650;28;20044;-70
2023/12/06 00:22:01;;;;;;;39.97;20.10;;;;;;;1.09;100.00;100972.19;5029493;28;20056;-70
2023/12/06 00:24:27;;;;;;;38.80;19.75;;;;;;;1.12;100.00;100978.16;5012875;28;20048;-70
2023/12/06 00:26:52;;;;;;;38.58;18.70;;;;;;;1.06;100.00;100971.63;5030780;28;20117;-70
2023/12/06 00:29:17;;;;;;;40.45;21.98;;;;;;;1.13;100.00;100982.44;5029631;28;20368;-70
2023/12/06 00:31:43;;;;;;;39.20;21.42;;;;;;;1.14;100.00;100973.59;5030873;28;20094;-70
2023/12/06 00:34:08;;;;;;;39.75;21.65;;;;;;;1.14;100.00;100978.84;5030714;28;20120;-70
2023/12/06 00:36:34;;;;;;;38.22;19.38;;;;;;;1.15;100.00;100981.31;5029148;28;20052;-70
2023/12/06 00:38:59;;;;;;;41.72;21.00;;;;;;;1.18;100.00;100982.84;5030529;28;20124;-70
2023/12/06 00:41:25;;;;;;;36.85;18.27;;;;;;;1.19;100.00;100990.63;5029222;28;20481;-70
2023/12/06 00:43:52;;;;;;;38.33;22.40;;;;;;;1.16;100.00;100993.53;5030192;28;20046;-70
2023/12/06 00:46:17;;;;;;;38.65;20.33;;;;;;;1.20;100.00;101001.97;5029172;28;20069;-70
2023/12/06 00:48:43;;;;;;;35.40;17.83;;;;;;;1.16;100.00;101003.19;5030429;28;20064;-70
2023/12/06 00:51:09;;;;;;;36.30;18.92;;;;;;;1.20;100.00;101007.22;5030234;28;20580;-70
2023/12/06 00:53:34;;;;;;;36.75;20.90;;;;;;;1.18;100.00;101002.09;5029106;28;20057;-70
2023/12/06 00:56:00;;;;;;;37.75;18.83;;;;;;;1.22;100.00;101018.41;5028871;28;20452;-70
2023/12/06 00:58:26;;;;;;;43.35;20.75;;;;;;;1.19;100.00;101010.81;5030388;28;20484;-70
2023/12/06 01:00:51;;;;;;;40.78;22.02;;;;;;;1.24;100.00;101022.59;5028939;28;20956;-70
2023/12/06 01:03:16;;;;;;;38.28;20.83;;;;;;;1.26;100.00;101025.91;5030034;28;20087;-70
2023/12/06 01:05:42;;;;;;;43.15;21.48;;;;;;;1.26;100.00;101025.09;5030072;28;20120;-70
2023/12/06 01:08:07;;;;;;;41.25;21.80;;;;;;;1.23;100.00;101022.69;5030124;28;20112;-70
2023/12/06 01:10:34;;;;;;;38.97;19.67;;;;;;;1.23;100.00;101025.31;5028859;28;20037;-70
2023/12/06 01:13:00;;;;;;;40.50;22.27;;;;;;;1.19;100.00;101031.81;5030026;28;20025;-70
2023/12/06 01:15:25;;;;;;;39.08;19.67;;;;;;;1.24;100.00;101032.25;5030061;28;20032;-70
2023/12/06 01:17:51;;;;;;;40.78;19.42;;;;;;;1.20;100.00;101026.44;5030177;28;20060;-70
2023/12/06 01:20:16;;;;;;;43.05;21.90;;;;;;;1.23;100.00;101035.84;5028460;28;20033;-70
2023/12/06 01:22:41;;;;;;;41.90;21.58;;;;;;;1.25;100.00;101041.81;5029842;28;20037;-70
2023/12/06 01:25:07;;;;;;;43.55;20.55;;;;;;;1.26;100.00;101035.59;5029640;28;20366;-70
2023/12/06 01:27:35;;;;;;;40.63;22.88;;;;;;;1.28;100.00;101047.66;5029796;28;20033;-70
2023/12/06 01:30:01;;;;;;;38.38;19.13;;;;;;;1.28;100.00;101046.78;5029653;28;20436;-70
2023/12/06 01:32:26;;;;;;;41.83;22.75;;;;;;;1.30;100.00;101050.13;5028265;28;20033;-70
2023/12/06 01:34:51;;;;;;;42.50;22.15;;;;;;;1.29;100.00;101056.34;5029489;28;20029;-70
2023/12/06 01:37:17;;;;;;;41.40;21.27;;;;;;;1.30;100.00;101058.00;5029596;28;20018;-70
2023/12/06 01:39:42;;;;;;;43.40;24.15;;;;;;;1.30;100.00;101053.56;5028221;28;20056;-70
2023/12/06 01:42:07;;;;;;;41.88;22.05;;;;;;;1.30;100.00;101064.09;5029458;28;20087;-70
2023/12/06 01:44:33;;;;;;;37.97;20.02;;;;;;;1.30;100.00;101063.25;5027954;28;20057;-70
2023/12/06 01:46:58;;;;;;;38.20;19.13;;;;;;;1.30;100.00;101065.88;5029452;28;20030;-70
2023/12/06 01:49:26;;;;;;;37.63;20.17;;;;;;;1.30;100.00;101076.41;5029419;28;20060;-70
2023/12/06 01:51:51;;;;;;;38.53;20.50;;;;;;;1.29;100.00;101072.13;5028778;28;20068;-70
2023/12/06 01:54:17;;;;;;;36.60;20.30;;;;;;;1.28;100.00;101075.69;5030251;28;20500;-70
2023/12/06 01:56:44;;;;;;;41.88;23.45;;;;;;;1.29;100.00;101078.19;5028634;28;20033;-70
2023/12/06 01:59:11;;;;;;;33.63;17.63;;;;;;;1.30;100.00;101084.28;5027958;28;20034;-70
2023/12/06 02:01:37;;;;;;;39.13;19.42;;;;;;;1.30;100.00;101073.75;5027774;28;20041;-70
2023/12/06 02:04:03;;;;;;;34.90;17.83;;;;;;;1.29;100.00;101085.25;5029276;28;20040;-70
2023/12/06 02:06:29;;;;;;;36.63;19.92;;;;;;;1.26;100.00;101075.84;5019474;28;20392;-70
2023/12/06 02:08:55;;;;;;;39.90;21.50;;;;;;;1.30;100.00;101082.47;5027815;28;20139;-70
2023/12/06 02:11:21;;;;;;;35.35;17.20;;;;;;;1.30;100.00;101082.47;5029037;28;20397;-70
2023/12/06 02:13:46;;;;;;;34.95;21.23;;;;;;;1.28;100.00;101083.56;5028834;28;20095;-70
2023/12/06 02:16:13;;;;;;;35.45;17.60;;;;;;;1.29;100.00;101083.44;5028790;28;20037;-70
2023/12/06 02:18:39;;;;;;;34.08;20.20;;;;;;;1.31;100.00;101086.78;5028418;28;20037;-70
2023/12/06 02:21:05;;;;;;;40.15;21.00;;;;;;;1.31;100.00;101094.66;5029006;28;20070;-70
2023/12/06 02:23:37;;;;;;;39.45;20.23;;;;;;;1.24;100.00;101083.00;5028929;28;20099;-70
2023/12/06 02:26:02;;;;;;;32.13;16.52;;;;;;;1.29;100.00;101093.97;5027128;28;20056;-70
2023/12/06 02:28:28;;;;;;;33.42;19.73;;;;;;;1.32;100.00;101092.88;5028883;28;20037;-70
2023/12/06 02:30:53;;;;;;;35.70;18.13;;;;;;;1.34;100.00;101093.56;5028836;28;20069;-70
2023/12/06 02:33:18;;;;;;;34.10;19.33;;;;;;;1.33;100.00;101089.25;5027551;28;20060;-70
2023/12/06 02:35:50;;;;;;;33.03;17.92;;;;;;;1.37;100.00;101098.56;5028777;28;20072;-70
2023/12/06 02:38:19;;;;;;;35.67;19.15;;;;;;;1.36;100.00;101096.06;5028841;28;20024;-70
2023/12/06 02:40:47;;;;;;;35.15;18.42;;;;;;;1.38;100.00;101104.66;5028506;28;20079;-70
2023/12/06 02:43:14;;;;;;;35.85;19.63;;;;;;;1.37;100.00;101100.38;5028373;28;20045;-70
2023/12/06 02:45:41;;;;;;;34.55;17.10;;;;;;;1.32;100.00;101090.25;5028560;28;20175;-70
2023/12/06 02:48:07;;;;;;;34.78;17.15;;;;;;;1.34;100.00;101090.94;5028055;28;20037;-70
2023/12/06 02:50:32;;;;;;;33.92;18.80;;;;;;;1.36;100.00;101093.44;5028518;28;20461;-70
2023/12/06 02:52:58;;;;;;;33.42;17.70;;;;;;;1.41;100.00;101096.50;5027345;28;20040;-70
2023/12/06 02:55:23;;;;;;;32.65;17.90;;;;;;;1.39;100.00;101096.66;5028427;28;20037;-70
2023/12/06 02:57:48;;;;;;;35.05;19.13;;;;;;;1.38;100.00;101087.06;5027222;28;20025;-70
2023/12/06 03:00:14;;;;;;;31.95;17.45;;;;;;;1.42;100.00;101106.06;5028401;28;20095;-70
2023/12/06 03:02:39;;;;;;;34.53;18.40;;;;;;;1.40;100.00;101097.47;5010793;28;20539;-70
2023/12/06 03:05:05;;;;;;;32.55;17.50;;;;;;;1.42;100.00;101106.06;5028789;28;20029;-69
2023/12/06 03:07:30;;;;;;;29.75;18.20;;;;;;;1.43;100.00;101115.59;5032327;28;20048;-69
2023/12/06 03:09:56;;;;;;;34.78;16.95;;;;;;;1.41;100.00;101107.84;5032375;28;20035;-69
2023/12/06 03:12:21;;;;;;;35.33;17.23;;;;;;;1.45;100.00;101105.78;5031156;28;20037;-69
2023/12/06 03:14:47;;;;;;;36.97;19.70;;;;;;;1.45;100.00;101105.78;5032276;28;20026;-70
2023/12/06 03:17:12;;;;;;;31.25;17.55;;;;;;;1.42;100.00;101100.81;5032107;28;20113;-69
2023/12/06 03:19:37;;;;;;;33.42;18.55;;;;;;;1.39;100.00;101088.75;5032115;28;20072;-69
2023/12/06 03:22:03;;;;;;;29.90;16.70;;;;;;;1.42;100.00;101095.56;5032117;28;20033;-69
2023/12/06 03:24:28;;;;;;;30.35;16.27;;;;;;;1.48;100.00;101105.53;5032266;28;20116;-69
2023/12/06 03:26:53;;;;;;;33.30;17.42;;;;;;;1.48;100.00;101103.72;5031856;28;20481;-69
2023/12/06 03:29:19;;;;;;;33.63;18.60;;;;;;;1.49;100.00;101104.56;5030657;28;20072;-69
2023/12/06 03:31:44;;;;;;;32.25;17.17;;;;;;;1.51;100.00;101113.97;5031907;28;20116;-69
2023/12/06 03:34:09;;;;;;;29.52;16.13;;;;;;;1.53;100.00;101121.75;5031885;28;20068;-69
2023/12/06 03:36:35;;;;;;;36.97;17.95;;;;;;;1.54;100.00;101126.03;5031945;28;20030;-69
2023/12/06 03:39:00;;;;;;;34.42;18.38;;;;;;;1.54;100.00;101126.84;5031607;28;20457;-70
2023/12/06 03:41:26;;;;;;;30.48;17.17;;;;;;;1.56;100.00;101124.09;5031659;28;20038;-69
2023/12/06 03:43:51;;;;;;;32.65;16.20;;;;;;;1.57;100.00;101128.38;5031409;28;20055;-69
2023/12/06 03:46:16;;;;;;;32.83;17.48;;;;;;;1.59;100.00;101130.91;5031425;28;20047;-70
2023/12/06 03:48:42;;;;;;;29.42;17.00;;;;;;;1.59;100.00;101134.34;5031669;28;20065;-69
2023/12/06 03:51:07;;;;;;;35.03;19.38;;;;;;;1.61;100.00;101134.22;5031635;28;20033;-69
2023/12/06 03:53:33;;;;;;;31.77;19.58;;;;;;;1.62;100.00;101135.88;5031651;28;20499;-69
2023/12/06 03:55:58;;;;;;;29.13;15.68;;;;;;;1.60;100.00;101136.03;5031251;28;20140;-69
2023/12/06 03:58:23;;;;;;;29.67;16.50;;;;;;;1.65;100.00;101141.72;5031444;28;20167;-69
2023/12/06 04:00:49;;;;;;;28.50;15.93;;;;;;;1.65;100.00;101139.09;5031277;28;20037;-69
2023/12/06 04:03:15;;;;;;;29.08;15.50;;;;;;;1.63;100.00;101130.50;5031285;28;20028;-69
2023/12/06 04:05:43;;;;;;;28.08;15.73;;;;;;;1.66;100.00;101138.13;5031284;28;20030;-69
2023/12/06 04:08:10;;;;;;;28.98;15.35;;;;;;;1.72;100.00;101147.28;5031266;28;20076;-69
2023/12/06 04:10:36;;;;;;;24.35;13.48;;;;;;;1.72;100.00;101136.75;5031113;28;20029;-69
2023/12/06 04:13:02;;;;;;;32.50;16.80;;;;;;;1.68;100.00;101136.19;5031055;28;20091;-69
2023/12/06 04:15:28;;;;;;;29.30;16.25;;;;;;;1.69;100.00;101137.03;5030974;28;20396;-69
2023/12/06 04:17:54;;;;;;;29.77;16.17;;;;;;;1.73;100.00;101147.16;5030324;28;20033;-69
2023/12/06 04:20:19;;;;;;;25.85;14.15;;;;;;;1.77;100.00;101158.22;5029612;28;20032;-69
2023/12/06 04:22:44;;;;;;;30.73;16.48;;;;;;;1.79;100.00;101155.47;5030884;28;20405;-69
2023/12/06 04:25:13;;;;;;;25.45;14.13;;;;;;;1.80;100.00;101155.34;5030847;28;20041;-69
2023/12/06 04:27:38;;;;;;;28.75;15.00;;;;;;;1.82;100.00;101160.47;5030804;28;20028;-69
2023/12/06 04:30:05;;;;;;;27.55;13.85;;;;;;;1.82;100.00;101157.84;5030741;28;20034;-69
2023/12/06 04:32:30;;;;;;;29.80;17.08;;;;;;;1.84;100.00;101151.50;5030854;28;20025;-69
2023/12/06 04:34:56;;;;;;;31.92;15.77;;;;;;;1.84;100.00;101156.75;5030613;28;20037;-69
2023/12/06 04:37:22;;;;;;;26.05;15.38;;;;;;;1.84;100.00;101162.00;5030703;28;20026;-69
2023/12/06 04:39:48;;;;;;;27.65;15.98;;;;;;;1.83;100.00;101155.06;5030634;28;20477;-69
2023/12/06 04:42:14;;;;;;;28.00;15.75;;;;;;;1.86;100.00;101162.72;5030579;28;20030;-69
2023/12/06 04:44:39;;;;;;;24.73;14.13;;;;;;;1.89;100.00;101169.50;5030466;28;20131;-69
2023/12/06 04:47:05;;;;;;;26.60;14.50;;;;;;;1.89;100.00;101175.59;5030524;28;20088;-69
2023/12/06 04:49:30;;;;;;;28.60;13.45;;;;;;;1.91;100.00;101176.31;5030538;28;20068;-69
2023/12/06 04:51:56;;;;;;;27.35;15.07;;;;;;;1.93;100.00;101170.91;5030424;28;20032;-69
2023/12/06 04:54:23;;;;;;;31.55;14.95;;;;;;;1.93;100.00;101169.09;5030253;28;20033;-69
2023/12/06 04:56:49;;;;;;;28.50;15.68;;;;;;;1.93;100.00;101171.72;5030353;28;20029;-69
2023/12/06 04:59:15;;;;;;;26.80;13.98;;;;;;;1.95;100.00;101174.22;5030253;28;20040;-68
2023/12/06 05:01:40;;;;;;;26.92;14.73;;;;;;;1.95;100.00;101179.50;5028924;28;20043;-69
2023/12/06 05:04:06;;;;;;;25.13;13.50;;;;;;;1.96;100.00;101176.75;5030252;28;20029;-69
2023/12/06 05:06:31;;;;;;;36.65;13.80;;;;;;;1.94;100.00;101177.84;5030093;28;20036;-69
2023/12/06 05:08:57;;;;;;;26.58;13.32;;;;;;;1.99;100.00;101183.50;5028776;28;20393;-69
2023/12/06 05:11:22;;;;;;;29.35;16.80;;;;;;;1.99;100.00;101180.88;5030097;28;20041;-69
2023/12/06 05:13:49;;;;;;;28.48;15.85;;;;;;;1.99;100.00;101183.50;5029903;28;20029;-69
2023/12/06 05:16:15;;;;;;;31.45;15.48;;;;;;;1.97;100.00;101185.47;5030026;28;20040;-69
2023/12/06 05:18:40;;;;;;;24.67;12.40;;;;;;;2.01;100.00;101188.66;5029689;28;20380;-69
2023/12/06 05:21:06;;;;;;;24.75;13.88;;;;;;;2.03;100.00;101197.25;5028635;28;20059;-69
2023/12/06 05:23:31;;;;;;;28.38;14.43;;;;;;;2.03;100.00;101195.44;5029946;28;20050;-69
2023/12/06 05:25:56;;;;;;;25.10;14.93;;;;;;;2.05;100.00;101197.94;5030402;28;20052;-69
2023/12/06 05:28:22;;;;;;;26.17;14.07;;;;;;;2.06;100.00;101195.16;5029147;28;20057;-69
2023/12/06 05:30:47;;;;;;;24.48;13.30;;;;;;;2.09;100.00;101194.91;5029289;28;20029;-69
2023/12/06 05:33:12;;;;;;;23.38;12.40;;;;;;;2.13;100.00;101198.94;5029684;28;20033;-69
2023/12/06 05:35:38;;;;;;;25.73;15.43;;;;;;;2.14;100.00;101197.13;5029566;28;20033;-69
2023/12/06 05:38:03;;;;;;;30.05;15.05;;;;;;;2.11;100.00;101192.16;5028346;28;20060;-69
2023/12/06 05:40:29;;;;;;;25.40;13.73;;;;;;;2.11;100.00;101185.09;5029537;28;20104;-68
2023/12/06 05:42:54;;;;;;;24.83;13.40;;;;;;;2.20;100.00;101196.59;5029285;28;20046;-69
2023/12/06 05:45:19;;;;;;;26.42;13.98;;;;;;;2.22;100.00;101197.31;5029410;28;20032;-69
2023/12/06 05:47:45;;;;;;;22.67;11.07;;;;;;;2.24;100.00;101208.53;5029379;28;20072;-68
2023/12/06 05:50:12;;;;;;;26.02;13.57;;;;;;;2.23;100.00;101206.03;5029340;28;20551;-69
2023/12/06 05:52:38;;;;;;;28.98;14.95;;;;;;;2.27;100.00;101213.53;5029085;28;20033;-69
2023/12/06 05:55:04;;;;;;;26.33;12.85;;;;;;;2.29;100.00;101216.03;5029342;28;20159;-69
2023/12/06 05:57:29;;;;;;;24.33;13.05;;;;;;;2.25;100.00;101207.56;5029098;28;20029;-69
2023/12/06 05:59:55;;;;;;;25.35;13.13;;;;;;;2.31;100.00;101209.66;5027727;28;20036;-69
2023/12/06 06:02:20;;;;;;;23.38;11.25;;;;;;;2.32;100.00;101210.50;5027512;28;20479;-69
2023/12/06 06:04:45;;;;;;;25.65;12.27;;;;;;;2.33;100.00;101213.00;5027600;28;20041;-70
2023/12/06 06:07:11;;;;;;;25.20;13.25;;;;;;;2.35;100.00;101220.75;5028744;28;20033;-70
2023/12/06 06:09:36;;;;;;;29.95;15.98;;;;;;;2.37;100.00;101213.56;5028921;28;20033;-70
2023/12/06 06:12:03;;;;;;;28.23;14.68;;;;;;;2.38;100.00;101216.06;5028835;28;20067;-70
2023/12/06 06:14:29;;;;;;;27.42;14.75;;;;;;;2.39;100.00;101217.72;5029047;28;20040;-70
2023/12/06 06:16:54;;;;;;;27.65;16.58;;;;;;;2.41;100.00;101222.84;5028797;28;20609;-70
2023/12/06 06:19:19;;;;;;;28.58;14.80;;;;;;;2.44;100.00;101219.09;5027512;28;20037;-70
2023/12/06 06:21:45;;;;;;;29.02;14.18;;;;;;;2.45;100.00;101221.63;5027560;28;20064;-70
2023/12/06 06:24:10;;;;;;;27.08;15.30;;;;;;;2.45;100.00;101226.06;5027587;28;20650;-69
2023/12/06 06:26:35;;;;;;;26.63;14.52;;;;;;;2.46;100.00;101236.44;5028573;28;20082;-69
2023/12/06 06:29:01;;;;;;;28.52;14.65;;;;;;;2.48;100.00;101237.13;5028675;28;20086;-69
2023/12/06 06:31:26;;;;;;;27.67;13.23;;;;;;;2.49;100.00;101230.91;5028611;28;20069;-69
2023/12/06 06:33:52;;;;;;;28.20;12.68;;;;;;;2.48;100.00;101242.41;5028697;28;20054;-69
2023/12/06 06:36:17;;;;;;;27.15;14.57;;;;;;;2.50;100.00;101242.28;5028583;28;20435;-69
2023/12/06 06:38:43;;;;;;;26.92;12.73;;;;;;;2.47;100.00;101246.00;5028557;28;20025;-69
2023/12/06 06:41:08;;;;;;;24.73;13.23;;;;;;;2.51;100.00;101250.03;5031732;28;20061;-69
2023/12/06 06:43:34;;;;;;;28.70;15.43;;;;;;;2.50;100.00;101253.63;5034999;28;20064;-69
2023/12/06 06:45:59;;;;;;;27.70;13.63;;;;;;;2.51;100.00;101252.66;5035221;28;20103;-69
2023/12/06 06:48:25;;;;;;;25.63;13.52;;;;;;;2.50;100.00;101266.81;5035005;28;20389;-69
2023/12/06 06:50:51;;;;;;;27.55;13.82;;;;;;;2.52;100.00;101271.94;5034889;28;20112;-69
2023/12/06 06:53:16;;;;;;;26.38;13.65;;;;;;;2.52;100.00;101266.69;5034893;28;20037;-69
2023/12/06 06:55:42;;;;;;;27.35;13.88;;;;;;;2.52;100.00;101269.31;5035209;28;20529;-69
2023/12/06 06:58:07;;;;;;;28.10;13.30;;;;;;;2.53;100.00;101274.44;5034935;28;20069;-68
2023/12/06 07:00:32;;;;;;;23.92;13.27;;;;;;;2.53;100.00;101274.44;5034909;28;20033;-69
2023/12/06 07:02:58;;;;;;;26.33;13.05;;;;;;;2.53;100.00;101274.44;5034977;28;20068;-69
2023/12/06 07:05:23;;;;;;;25.35;14.57;;;;;;;2.54;100.00;101278.75;5034929;28;20041;-68
2023/12/06 07:07:48;;;;;;;24.70;12.35;;;;;;;2.50;100.00;101269.44;5034685;28;20072;-68
2023/12/06 07:10:14;;;;;;;27.50;13.80;;;;;;;2.57;100.00;101280.28;5034828;28;20075;-69
2023/12/06 07:12:41;;;;;;;27.77;13.40;;;;;;;2.56;100.00;101275.97;5034535;28;20044;-69
2023/12/06 07:15:14;;;;;;;24.95;13.35;;;;;;;2.59;100.00;101283.59;5034782;28;20086;-69
2023/12/06 07:17:41;;;;;;;28.55;15.07;;;;;;;2.60;100.00;101280.00;5034993;28;20026;-69
2023/12/06 07:20:08;;;;;;;22.65;11.50;;;;;;;2.57;100.00;101277.66;5034776;28;20371;-69
2023/12/06 07:22:33;;;;;;;24.55;12.75;;;;;;;2.61;100.00;101294.81;5034920;28;20121;-69
2023/12/06 07:24:59;;;;;;;23.63;11.98;;;;;;;2.63;100.00;101285.00;5033342;28;20123;-69
2023/12/06 07:27:24;;;;;;;25.10;13.10;;;;;;;2.64;100.00;101291.91;5034613;28;20107;-68
2023/12/06 07:29:49;;;;;;;28.88;13.63;;;;;;;2.66;100.00;101292.63;5034552;28;20116;-69
2023/12/06 07:32:15;;;;;;;24.27;11.77;;;;;;;2.66;100.00;101284.72;5034516;28;20072;-69
2023/12/06 07:34:40;;;;;;;28.67;12.50;;;;;;;2.67;100.00;101289.00;5034755;28;20033;-70
2023/12/06 07:37:06;;;;;;;25.38;13.70;;;;;;;2.67;100.00;101288.19;5034316;28;20071;-69
2023/12/06 07:39:31;;;;;;;24.00;12.27;;;;;;;2.69;100.00;101294.97;5032486;28;20516;-70
2023/12/06 07:41:57;;;;;;;28.40;14.57;;;;;;;2.69;100.00;101294.16;5033324;28;20033;-70
2023/12/06 07:44:22;;;;;;;24.65;12.73;;;;;;;2.71;100.00;101300.94;5033202;28;20083;-71
2023/12/06 07:46:48;;;;;;;25.73;12.43;;;;;;;2.73;100.00;101309.56;5033624;28;20030;-71
2023/12/06 07:49:13;;;;;;;27.63;13.90;;;;;;;2.74;100.00;101319.13;5033729;28;20034;-70
2023/12/06 07:51:39;;;;;;;26.38;12.02;;;;;;;2.75;100.00;101323.44;5032333;28;20033;-73
2023/12/06 07:54:04;;;;;;;26.42;12.00;;;;;;;2.76;100.00;101319.81;5030757;28;20037;-70
2023/12/06 07:56:30;;;;;;;25.63;14.10;;;;;;;2.80;100.00;101323.00;5029816;28;20176;-71
2023/12/06 07:58:57;;;;;;;23.65;12.10;;;;;;;2.81;100.00;101328.16;5031260;28;20124;-70
2023/12/06 08:01:24;;;;;;;23.42;11.23;;;;;;;2.84;100.00;101316.53;5031091;28;20122;-70
2023/12/06 08:03:49;;;;;;;24.38;13.75;;;;;;;2.83;100.00;101318.31;5030849;28;20048;-70
2023/12/06 08:06:16;;;;;;;25.58;10.32;;;;;;;2.84;100.00;101324.41;5028927;28;20033;-70
2023/12/06 08:08:42;;;;;;;23.23;12.95;;;;;;;2.89;100.00;101339.84;5030290;28;20053;-70
2023/12/06 08:11:07;;;;;;;23.20;11.80;;;;;;;2.92;100.00;101323.75;5030111;28;20057;-70
2023/12/06 08:13:33;;;;;;;23.88;11.38;;;;;;;2.93;100.00;101339.41;5029440;28;20033;-71
2023/12/06 08:15:58;;;;;;;28.45;13.57;;;;;;;2.96;100.00;101333.88;5029262;28;20319;-71
2023/12/06 08:18:23;;;;;;;25.13;13.20;;;;;;;2.98;100.00;101337.19;5028858;28;20041;-71
2023/12/06 08:20:49;;;;;;;26.98;13.10;;;;;;;2.99;100.00;101328.34;5030598;28;20036;-71
2023/12/06 08:23:14;;;;;;;24.85;12.82;;;;;;;3.01;100.00;101342.22;5030556;28;20041;-71
2023/12/06 08:25:42;;;;;;;25.42;13.23;;;;;;;3.04;100.00;101339.31;5030695;28;20075;-69
2023/12/06 08:28:08;;;;;;;23.13;11.32;;;;;;;3.06;100.00;101337.34;5029116;28;20337;-71
2023/12/06 08:30:33;;;;;;;22.25;11.02;;;;;;;3.09;100.00;101346.78;5030600;28;20095;-71
2023/12/06 08:32:59;;;;;;;26.48;12.80;;;;;;;3.08;100.00;101347.78;5030596;28;20033;-70
2023/12/06 08:35:24;;;;;;;24.05;12.98;;;;;;;3.11;100.00;101357.22;5030536;28;20109;-69
2023/12/06 08:37:50;;;;;;;25.00;12.45;;;;;;;3.10;100.00;101348.47;5030486;28;20377;-70
2023/12/06 08:40:15;;;;;;;29.05;12.80;;;;;;;3.12;100.00;101349.19;5029030;28;20107;-69
2023/12/06 08:42:41;;;;;;;22.08;11.95;;;;;;;3.18;100.00;101355.72;5012307;28;20030;-70
2023/12/06 08:45:08;;;;;;;25.88;13.85;;;;;;;3.14;100.00;101349.03;5030312;28;20029;-70
2023/12/06 08:47:33;;;;;;;22.70;12.25;;;;;;;3.23;100.00;101371.94;5030196;28;20037;-71
2023/12/06 08:49:59;;;;;;;26.95;13.73;;;;;;;3.25;100.00;101372.66;5029584;28;20029;-71
2023/12/06 08:52:24;;;;;;;24.08;12.63;;;;;;;3.22;100.00;101359.72;5029077;28;20092;-72
2023/12/06 08:54:50;;;;;;;24.05;12.65;;;;;;;3.26;100.00;101375.13;5029759;28;20495;-70
2023/12/06 08:57:15;;;;;;;26.08;13.45;;;;;;;3.27;100.00;101370.69;5029897;28;20500;-68
2023/12/06 08:59:41;;;;;;;26.08;14.00;;;;;;;3.31;100.00;101369.47;5029259;28;20033;-68
2023/12/06 09:02:06;;;;;;;27.15;13.82;;;;;;;3.32;100.00;101373.75;5028537;28;20080;-69
2023/12/06 09:04:34;;;;;;;25.48;12.23;;;;;;;3.29;100.00;101369.59;5030214;28;20025;-68
2023/12/06 09:06:59;;;;;;;23.38;11.80;;;;;;;3.22;100.00;101365.84;5029747;28;20481;-68
2023/12/06 09:09:24;;;;;;;28.77;14.90;;;;;;;3.38;100.00;101388.19;5029698;28;20032;-68
2023/12/06 09:11:50;;;;;;;21.50;11.55;;;;;;;3.37;100.00;101386.53;5029007;28;20025;-68
2023/12/06 09:14:15;;;;;;;29.08;15.55;;;;;;;3.33;100.00;101387.75;5030446;28;20069;-68
2023/12/06 09:16:41;;;;;;;32.15;15.93;;;;;;;3.31;100.00;101389.72;5028014;28;20021;-70
2023/12/06 09:19:07;;;;;;;25.17;12.73;;;;;;;3.32;100.00;101391.38;5027517;28;20380;-70
2023/12/06 09:21:41;;;;;;;26.33;12.43;;;;;;;3.37;100.00;101387.34;5026589;28;20034;-71
2023/12/06 09:24:09;;;;;;;26.95;12.48;;;;;;;3.46;100.00;101393.63;5027652;28;20033;-71
2023/12/06 09:26:35;;;;;;;24.77;14.43;;;;;;;3.56;100.00;101404.19;5027427;28;20025;-71
2023/12/06 09:29:02;;;;;;;22.42;11.73;;;;;;;3.55;100.00;101405.16;5026433;28;20033;-71
2023/12/06 09:31:27;;;;;;;22.88;12.38;;;;;;;3.50;100.00;101406.38;5027487;28;20037;-72
2023/12/06 09:33:52;;;;;;;22.63;12.25;;;;;;;3.54;100.00;101401.69;5027645;28;20366;-71
2023/12/06 09:36:18;;;;;;;28.17;14.13;;;;;;;3.57;100.00;101397.94;5027451;28;20120;-71
2023/12/06 09:38:43;;;;;;;27.20;12.40;;;;;;;3.74;100.00;101407.78;5027218;28;20042;-71
2023/12/06 09:41:11;;;;;;;23.75;12.70;;;;;;;3.87;100.00;101415.44;5027062;28;20389;-70
2023/12/06 09:43:39;;;;;;;24.13;12.38;;;;;;;3.82;100.00;101394.75;5026918;28;20057;-70
2023/12/06 09:46:04;;;;;;;24.73;11.82;;;;;;;3.93;100.00;101410.47;5025586;28;20594;-69
2023/12/06 09:48:30;;;;;;;26.17;10.85;;;;;;;3.87;100.00;101412.81;5027235;28;20030;-68
2023/12/06 09:50:56;;;;;;;23.75;11.07;;;;;;;3.81;100.00;101424.75;5025648;28;20041;-68
2023/12/06 09:53:22;;;;;;;22.55;11.35;;;;;;;3.73;100.00;101435.16;5027312;28;20068;-70
2023/12/06 09:55:47;;;;;;;22.58;11.85;;;;;;;3.64;100.00;101422.78;5024696;28;20103;-70
2023/12/06 09:58:15;;;;;;;24.10;12.57;;;;;;;3.76;100.00;101439.34;5026830;28;20392;-71
2023/12/06 10:00:41;;;;;;;21.55;11.25;;;;;;;3.67;100.00;101425.16;5027976;28;20037;-72
2023/12/06 10:03:09;;;;;;;24.90;10.70;;;;;;;3.86;100.00;101443.63;5026991;28;20033;-75
2023/12/06 10:05:34;;;;;;;20.00;9.07;;;;;;;3.91;100.00;101451.16;5025650;28;20029;-71
2023/12/06 10:08:00;;;;;;;20.83;10.43;;;;;;;3.85;100.00;101430.56;5026655;28;20034;-73
2023/12/06 10:10:27;;;;;;;24.20;9.57;;;;;;;3.92;100.00;101432.53;5027193;28;20068;-71
2023/12/06 10:12:55;;;;;;;19.88;9.38;;;;;;;4.04;100.00;101442.97;5027166;28;20017;-73
2023/12/06 10:15:22;;;;;;;22.15;9.25;;;;;;;4.01;100.00;101424.75;5026022;28;20038;-74
2023/12/06 10:17:48;;;;;;;19.35;9.45;;;;;;;4.15;100.00;101445.44;5025211;28;20076;-73
2023/12/06 10:20:15;;;;;;;27.50;11.02;;;;;;;4.24;100.00;101446.41;5026241;28;20025;-74
2023/12/06 10:22:41;;;;;;;17.88;9.18;;;;;;;4.26;100.00;101441.81;5026599;28;20079;-73
2023/12/06 10:25:08;;;;;;;23.38;11.25;;;;;;;4.31;100.00;101442.22;5026252;28;20033;-75
2023/12/06 10:27:35;;;;;;;20.95;11.18;;;;;;;4.38;100.00;101443.34;5026536;28;20064;-76
2023/12/06 10:30:08;;;;;;;21.67;9.88;;;;;;;4.42;100.00;101438.59;5025010;28;20029;-75
2023/12/06 10:32:34;;;;;;;20.48;9.23;;;;;;;4.52;100.00;101437.59;5026499;28;20531;-72
2023/12/06 10:35:03;;;;;;;19.75;8.77;;;;;;;4.58;100.00;101434.41;5027770;28;20061;-72
2023/12/06 10:37:29;;;;;;;19.58;9.50;;;;;;;4.71;100.00;101438.53;5026273;28;20018;-73
2023/12/06 10:40:09;;;;;;;15.38;8.68;;;;;;;4.77;100.00;101440.63;5026246;28;20091;-73
2023/12/06 10:42:35;;;;;;;16.65;8.38;;;;;;;4.80;100.00;101430.56;5026003;28;20427;-73
2023/12/06 10:45:03;;;;;;;16.92;8.40;;;;;;;4.86;100.00;101439.72;5026206;28;20033;-72
2023/12/06 10:47:29;;;;;;;17.30;7.60;;;;;;;4.90;100.00;101438.47;5026130;28;20122;-70
2023/12/06 10:49:55;;;;;;;17.23;7.85;;;;;;;5.00;100.00;101441.91;5026420;28;20025;-71
2023/12/06 10:52:21;;;;;;;18.95;8.65;;;;;;;5.15;100.00;101444.88;5026291;28;20083;-70
2023/12/06 10:54:47;;;;;;;17.83;9.95;;;;;;;5.34;100.00;101448.41;5008388;28;20044;-69
2023/12/06 10:57:13;;;;;;;19.48;9.70;;;;;;;5.44;100.00;101451.84;5026025;28;20026;-74
2023/12/06 10:59:39;;;;;;;18.08;8.57;;;;;;;5.41;100.00;101442.38;5026413;28;20456;-73
2023/12/06 11:02:07;;;;;;;16.92;8.18;;;;;;;5.44;100.00;101441.25;5026951;28;20029;-73